Weather at Elkford Heliport

Public forecast

Using degrees Celsius for public forecast. Weather courtesy of forecast.io.

Closest aviation weather report (METAR) to Elkford Heliport

Closest report is Cranbrook/Canadian Rockies International Airport, 40.9 nm (75.8 km) SW.

2024/05/20 00:00 (retrieved 53 minutes ago)

CYXC 200000Z 18013KT 25SM VCSH SCT058CB BKN110 BKN220 13/01 A2996 RMK CB4AS1CI2 SLP159 DENSITY ALT 3600FT

Closest aviation forecast (TAF) to Elkford Heliport

Closest forecast is Fairchild Air Force Base, 179.7 nm (332.8 km) SW.

2024/05/19 19:39 (retrieved 5 hours ago)

TAF KSKA 191900Z 1919/2101 24012KT 9999 FEW030 SCT060 BKN080 QNH3005INS BECMG 1919/1920 27012KT 9999 VCSH BKN050 610509 QNH3004INS TEMPO 1920/2002 VRB15G25KT 9000 -TSRA BKN050CB BECMG 2002/2003 26008KT 9999 NSW SCT040 BKN070 620709 QNH3004INS BECMG 2017/2018 30012KT 9999 VCSH SCT050 BKN070 610707 QNH2999INS TX16/1923Z TN03/2012Z